createdAt,value
2016-10-16T00:00:38.071Z,0
2016-10-16T00:01:38.059Z,0
2016-10-16T00:02:38.039Z,0
2016-10-16T00:03:38.031Z,0
2016-10-16T00:04:38.015Z,0
2016-10-16T00:05:38.031Z,0
2016-10-16T00:06:37.994Z,0
2016-10-16T00:07:37.953Z,0
2016-10-16T00:08:37.940Z,0
2016-10-16T00:09:37.936Z,0
2016-10-16T00:10:37.951Z,0
2016-10-16T00:11:37.905Z,0
2016-10-16T00:12:37.884Z,0
2016-10-16T00:13:37.869Z,0
2016-10-16T00:14:37.879Z,0
2016-10-16T00:15:37.846Z,0
2016-10-16T00:16:37.853Z,0
2016-10-16T00:17:37.821Z,0
2016-10-16T00:18:37.830Z,0
2016-10-16T00:19:37.811Z,0
2016-10-16T00:20:38.121Z,0
2016-10-16T00:21:37.766Z,0
2016-10-16T00:22:37.779Z,0
2016-10-16T00:23:37.728Z,0
2016-10-16T00:24:37.707Z,0
2016-10-16T00:25:37.720Z,0
2016-10-16T00:26:37.700Z,0
2016-10-16T00:27:37.665Z,0
2016-10-16T00:28:37.685Z,0
2016-10-16T00:29:37.669Z,0
2016-10-16T00:30:37.615Z,0
2016-10-16T00:31:37.604Z,0
2016-10-16T00:32:37.606Z,0
2016-10-16T00:33:37.586Z,0
2016-10-16T00:34:37.563Z,0
2016-10-16T00:35:37.560Z,0
2016-10-16T00:36:37.550Z,0
2016-10-16T00:37:37.547Z,0
2016-10-16T00:38:37.521Z,0
2016-10-16T00:39:37.477Z,0
2016-10-16T00:40:37.461Z,0
2016-10-16T00:41:37.491Z,0
2016-10-16T00:42:37.482Z,0
2016-10-16T00:43:37.444Z,0
2016-10-16T00:44:37.435Z,0
2016-10-16T00:45:37.402Z,0
2016-10-16T00:46:37.407Z,0
2016-10-16T00:47:37.367Z,0
2016-10-16T00:48:37.368Z,0
2016-10-16T00:49:37.338Z,0
2016-10-16T00:50:37.315Z,0
2016-10-16T00:51:37.428Z,0
2016-10-16T00:52:37.301Z,0
2016-10-16T00:53:37.317Z,0
2016-10-16T00:54:37.272Z,0
2016-10-16T00:55:37.282Z,0
2016-10-16T00:56:37.247Z,0
2016-10-16T00:57:37.239Z,0
2016-10-16T00:58:37.238Z,0
2016-10-16T00:59:37.218Z,0
2016-10-16T01:00:37.186Z,0
2016-10-16T01:01:37.192Z,0
2016-10-16T01:02:37.160Z,0
2016-10-16T01:03:37.133Z,0
2016-10-16T01:04:37.148Z,0
2016-10-16T01:05:37.109Z,0
2016-10-16T01:06:37.080Z,0
2016-10-16T01:07:37.112Z,0
2016-10-16T01:08:37.067Z,0
2016-10-16T01:09:37.054Z,0
2016-10-16T01:10:37.047Z,0
2016-10-16T01:11:37.018Z,0
2016-10-16T01:12:37.017Z,0
2016-10-16T01:13:37.010Z,0
2016-10-16T01:14:36.987Z,0
2016-10-16T01:15:36.967Z,0
2016-10-16T01:16:36.934Z,0
2016-10-16T01:17:36.950Z,0
2016-10-16T01:18:36.918Z,0
2016-10-16T01:19:36.907Z,0
2016-10-16T01:20:36.885Z,0
2016-10-16T01:21:36.873Z,0
2016-10-16T01:22:36.864Z,0
2016-10-16T01:23:36.857Z,0
2016-10-16T01:24:36.845Z,0
2016-10-16T01:25:36.835Z,0
2016-10-16T01:26:36.801Z,0
2016-10-16T01:27:36.798Z,0
2016-10-16T01:28:36.801Z,0
2016-10-16T01:29:36.763Z,0
2016-10-16T01:30:36.753Z,0
2016-10-16T01:31:36.707Z,0
2016-10-16T01:32:36.703Z,0
2016-10-16T01:33:36.696Z,0
2016-10-16T01:34:36.697Z,0
2016-10-16T01:35:36.653Z,0
2016-10-16T01:36:36.654Z,0
2016-10-16T01:37:36.628Z,0
2016-10-16T01:38:36.637Z,0
2016-10-16T01:39:36.608Z,0
2016-10-16T01:40:36.609Z,0
2016-10-16T01:41:36.557Z,0
2016-10-16T01:42:36.594Z,0
2016-10-16T01:43:36.555Z,0
2016-10-16T01:44:36.512Z,0
2016-10-16T01:45:36.505Z,0
2016-10-16T01:46:36.495Z,0
2016-10-16T01:47:36.475Z,0
2016-10-16T01:48:36.491Z,0
2016-10-16T01:49:36.453Z,0
2016-10-16T01:50:36.444Z,0
2016-10-16T01:51:36.432Z,0
2016-10-16T01:52:36.423Z,0
2016-10-16T01:53:36.388Z,0
2016-10-16T01:54:36.379Z,0
2016-10-16T01:55:36.369Z,0
2016-10-16T01:56:36.360Z,0
2016-10-16T01:57:36.350Z,0
2016-10-16T01:58:36.331Z,0
2016-10-16T01:59:36.308Z,0
2016-10-16T02:00:36.295Z,0
2016-10-16T02:01:36.295Z,0
2016-10-16T02:02:36.271Z,0
2016-10-16T02:03:36.256Z,0
2016-10-16T02:04:36.247Z,0
2016-10-16T02:05:36.202Z,0
2016-10-16T02:06:36.224Z,0
2016-10-16T02:07:36.199Z,0
2016-10-16T02:08:36.180Z,0
2016-10-16T02:09:36.159Z,0
2016-10-16T02:10:36.173Z,0
2016-10-16T02:11:36.137Z,0
2016-10-16T02:12:36.140Z,0
2016-10-16T02:13:36.104Z,0
2016-10-16T02:14:36.098Z,0
2016-10-16T02:15:36.085Z,0
2016-10-16T02:16:36.068Z,0
2016-10-16T02:17:36.046Z,0
2016-10-16T02:18:36.038Z,0
2016-10-16T02:19:36.133Z,0
2016-10-16T02:20:36.004Z,0
2016-10-16T02:21:35.974Z,0
2016-10-16T02:22:35.987Z,0
2016-10-16T02:23:35.947Z,0
2016-10-16T02:24:35.948Z,0
2016-10-16T02:25:35.928Z,0
2016-10-16T02:26:35.930Z,0
2016-10-16T02:27:35.899Z,0
2016-10-16T02:28:35.879Z,0
2016-10-16T02:29:35.897Z,0
2016-10-16T02:30:35.851Z,0
2016-10-16T02:31:36.152Z,0
2016-10-16T02:32:35.815Z,0
2016-10-16T02:33:35.811Z,0
2016-10-16T02:34:35.810Z,0
2016-10-16T02:35:36.072Z,0
2016-10-16T02:36:35.766Z,0
2016-10-16T02:37:35.733Z,0
2016-10-16T02:38:35.755Z,0
2016-10-16T02:39:35.716Z,0
2016-10-16T02:40:35.711Z,0
2016-10-16T02:41:35.717Z,0
2016-10-16T02:42:35.678Z,0
2016-10-16T02:43:35.664Z,0
2016-10-16T02:44:35.623Z,0
2016-10-16T02:45:35.635Z,0
2016-10-16T02:46:35.629Z,0
2016-10-16T02:47:35.590Z,0
2016-10-16T02:48:35.606Z,0
2016-10-16T02:49:35.585Z,0
2016-10-16T02:50:35.571Z,0
2016-10-16T02:51:35.547Z,0
2016-10-16T02:52:35.543Z,0
2016-10-16T02:53:35.527Z,0
2016-10-16T02:54:35.507Z,0
2016-10-16T02:55:35.470Z,0
2016-10-16T02:56:35.467Z,0
2016-10-16T02:57:35.469Z,0
2016-10-16T02:58:35.445Z,0
2016-10-16T02:59:35.432Z,0
2016-10-16T03:00:35.437Z,0
2016-10-16T03:01:35.416Z,0
2016-10-16T03:02:35.389Z,0
2016-10-16T03:03:35.377Z,0
2016-10-16T03:04:35.346Z,0
2016-10-16T03:05:35.339Z,0
2016-10-16T03:06:35.309Z,0
2016-10-16T03:07:35.299Z,0
2016-10-16T03:08:35.308Z,0
2016-10-16T03:09:35.307Z,0
2016-10-16T03:10:35.280Z,0
2016-10-16T03:11:35.249Z,0
2016-10-16T03:12:35.243Z,0
2016-10-16T03:13:35.221Z,0
2016-10-16T03:14:35.206Z,0
2016-10-16T03:15:35.199Z,0
2016-10-16T03:16:35.202Z,0
2016-10-16T03:17:35.171Z,0
2016-10-16T03:18:35.128Z,0
2016-10-16T03:19:35.141Z,0
2016-10-16T03:20:35.113Z,0
2016-10-16T03:21:35.120Z,0
2016-10-16T03:22:35.077Z,0
2016-10-16T03:23:35.085Z,0
2016-10-16T03:24:35.078Z,0
2016-10-16T03:25:35.047Z,0
2016-10-16T03:26:35.058Z,0
2016-10-16T03:27:35.020Z,0
2016-10-16T03:28:35.022Z,0
2016-10-16T03:29:35.006Z,0
2016-10-16T03:30:34.967Z,0
2016-10-16T03:31:34.963Z,0
2016-10-16T03:32:34.963Z,0
2016-10-16T03:33:34.935Z,0
2016-10-16T03:34:34.895Z,0
2016-10-16T03:35:34.922Z,0
2016-10-16T03:36:34.896Z,0
2016-10-16T03:37:35.050Z,0
2016-10-16T03:38:34.856Z,0
2016-10-16T03:39:34.847Z,0
2016-10-16T03:40:35.145Z,0
2016-10-16T03:41:34.810Z,0
2016-10-16T03:42:34.800Z,0
2016-10-16T03:43:34.811Z,0
2016-10-16T03:44:34.786Z,0
2016-10-16T03:45:34.756Z,0
2016-10-16T03:46:34.741Z,0
2016-10-16T03:47:34.733Z,0
2016-10-16T03:48:34.819Z,0
2016-10-16T03:49:34.720Z,0
2016-10-16T03:50:34.709Z,0
2016-10-16T03:51:34.677Z,0
2016-10-16T03:52:34.669Z,0
2016-10-16T03:53:34.676Z,0
2016-10-16T03:54:34.646Z,0
2016-10-16T03:55:34.620Z,0
2016-10-16T03:56:34.617Z,0
2016-10-16T03:57:34.594Z,0
2016-10-16T03:58:34.585Z,0
2016-10-16T03:59:34.553Z,0
2016-10-16T04:00:34.587Z,0
2016-10-16T04:01:34.517Z,0
2016-10-16T04:02:34.515Z,0
2016-10-16T04:03:34.500Z,0
2016-10-16T04:04:34.497Z,0
2016-10-16T04:05:34.469Z,0
2016-10-16T04:06:34.463Z,0
2016-10-16T04:07:34.461Z,0
2016-10-16T04:08:34.449Z,0
2016-10-16T04:09:34.420Z,0
2016-10-16T04:10:34.407Z,0
2016-10-16T04:11:34.377Z,0
2016-10-16T04:12:34.390Z,0
2016-10-16T04:13:34.362Z,0
2016-10-16T04:14:34.367Z,0
2016-10-16T04:15:34.332Z,0
2016-10-16T04:16:34.332Z,0
2016-10-16T04:17:34.331Z,0
2016-10-16T04:18:34.286Z,0
2016-10-16T04:19:34.306Z,0
2016-10-16T04:20:34.258Z,0
2016-10-16T04:21:34.250Z,0
2016-10-16T04:22:34.245Z,0
2016-10-16T04:23:34.216Z,0
2016-10-16T04:24:34.230Z,0
2016-10-16T04:25:34.187Z,0
2016-10-16T04:26:34.178Z,0
2016-10-16T04:27:34.188Z,0
2016-10-16T04:28:34.137Z,0
2016-10-16T04:29:34.125Z,0
2016-10-16T04:30:34.116Z,0
2016-10-16T04:31:34.094Z,0
2016-10-16T04:32:34.088Z,0
2016-10-16T04:33:34.065Z,0
2016-10-16T04:34:34.079Z,0
2016-10-16T04:35:34.388Z,0
2016-10-16T04:36:34.034Z,0
2016-10-16T04:37:34.030Z,0
2016-10-16T04:38:33.981Z,0
2016-10-16T04:39:33.964Z,0
2016-10-16T04:40:33.968Z,0
2016-10-16T04:41:33.985Z,0
2016-10-16T04:42:33.955Z,0
2016-10-16T04:43:33.927Z,0
2016-10-16T04:44:33.922Z,0
2016-10-16T04:45:33.903Z,0
2016-10-16T04:46:33.903Z,0
2016-10-16T04:47:33.901Z,0
2016-10-16T04:48:33.880Z,0
2016-10-16T04:49:33.855Z,0
2016-10-16T04:50:33.843Z,0
2016-10-16T04:51:33.813Z,0
2016-10-16T04:52:33.805Z,0
2016-10-16T04:53:33.795Z,0
2016-10-16T04:54:33.774Z,0
2016-10-16T04:55:33.748Z,0
2016-10-16T04:56:33.752Z,0
2016-10-16T04:57:33.757Z,0
2016-10-16T04:58:34.050Z,0
2016-10-16T04:59:33.698Z,0
2016-10-16T05:00:33.688Z,0
2016-10-16T05:01:33.659Z,4
2016-10-16T05:02:33.650Z,4
2016-10-16T05:03:33.682Z,0
2016-10-16T05:04:33.652Z,4
2016-10-16T05:05:33.649Z,4
2016-10-16T05:06:33.620Z,4
2016-10-16T05:07:33.612Z,8
2016-10-16T05:08:33.613Z,8
2016-10-16T05:09:33.568Z,8
2016-10-16T05:10:33.567Z,8
2016-10-16T05:11:33.557Z,12
2016-10-16T05:12:33.533Z,16
2016-10-16T05:13:33.513Z,16
2016-10-16T05:14:33.512Z,20
2016-10-16T05:15:33.490Z,24
2016-10-16T05:16:33.922Z,32
2016-10-16T05:17:33.475Z,40
2016-10-16T05:18:33.431Z,48
2016-10-16T05:19:33.463Z,60
2016-10-16T05:20:33.430Z,72
2016-10-16T05:21:33.415Z,84
2016-10-16T05:22:33.416Z,100
2016-10-16T05:23:33.405Z,116
2016-10-16T05:24:33.370Z,140
2016-10-16T05:25:33.344Z,164
2016-10-16T05:26:33.353Z,192
2016-10-16T05:27:33.353Z,220
2016-10-16T05:28:33.353Z,256
2016-10-16T05:29:33.316Z,292
2016-10-16T05:30:33.295Z,328
2016-10-16T05:31:33.288Z,372
2016-10-16T05:32:33.300Z,416
2016-10-16T05:33:33.256Z,464
2016-10-16T05:34:33.243Z,520
2016-10-16T05:35:33.233Z,576
2016-10-16T05:36:33.214Z,652
2016-10-16T05:37:33.206Z,820
2016-10-16T05:38:33.203Z,1016
2016-10-16T05:39:33.199Z,1148
2016-10-16T05:40:33.178Z,1276
2016-10-16T05:41:33.165Z,1424
2016-10-16T05:42:33.159Z,1580
2016-10-16T05:43:33.139Z,1752
2016-10-16T05:44:33.141Z,1924
2016-10-16T05:45:33.114Z,2116
2016-10-16T05:46:33.094Z,2296
2016-10-16T05:47:33.091Z,2508
2016-10-16T05:48:33.090Z,2720
2016-10-16T05:49:33.099Z,2944
2016-10-16T05:50:33.065Z,3156
2016-10-16T05:51:33.066Z,3356
2016-10-16T05:52:33.042Z,3604
2016-10-16T05:53:33.022Z,3820
2016-10-16T05:54:33.009Z,4040
2016-10-16T05:55:32.996Z,4264
2016-10-16T05:56:32.991Z,4476
2016-10-16T05:57:32.949Z,4688
2016-10-16T05:58:32.945Z,4936
2016-10-16T05:59:32.938Z,5168
2016-10-16T06:00:32.950Z,5412
2016-10-16T06:01:32.936Z,5624
2016-10-16T06:02:32.924Z,5820
2016-10-16T06:03:32.908Z,6072
2016-10-16T06:04:32.895Z,6308
2016-10-16T06:05:32.898Z,6540
2016-10-16T06:06:33.181Z,6792
2016-10-16T06:07:32.880Z,7020
2016-10-16T06:08:32.868Z,7284
2016-10-16T06:09:32.823Z,7500
2016-10-16T06:10:32.827Z,7812
2016-10-16T06:11:32.824Z,7996
2016-10-16T06:12:32.790Z,8244
2016-10-16T06:13:32.777Z,8448
2016-10-16T06:14:32.803Z,8676
2016-10-16T06:15:32.775Z,8896
2016-10-16T06:16:32.762Z,8736
2016-10-16T06:17:32.738Z,9412
2016-10-16T06:18:32.729Z,9424
2016-10-16T06:19:32.717Z,9456
2016-10-16T06:20:32.722Z,9496
2016-10-16T06:21:32.691Z,10296
2016-10-16T06:22:32.715Z,10916
2016-10-16T06:23:32.691Z,11160
2016-10-16T06:24:32.668Z,11432
2016-10-16T06:25:32.645Z,11736
2016-10-16T06:26:32.655Z,11844
2016-10-16T06:27:32.663Z,11844
2016-10-16T06:28:32.618Z,12024
2016-10-16T06:29:32.941Z,12392
2016-10-16T06:30:32.592Z,12752
2016-10-16T06:31:32.595Z,13232
2016-10-16T06:32:32.599Z,13388
2016-10-16T06:33:32.588Z,13484
2016-10-16T06:34:32.660Z,13648
2016-10-16T06:35:32.585Z,13864
2016-10-16T06:36:32.575Z,14336
2016-10-16T06:37:32.544Z,14880
2016-10-16T06:38:32.530Z,15104
2016-10-16T06:39:32.509Z,15104
2016-10-16T06:40:32.506Z,15456
2016-10-16T06:41:32.505Z,15776
2016-10-16T06:42:32.493Z,16160
2016-10-16T06:43:32.478Z,16224
2016-10-16T06:44:32.515Z,16448
2016-10-16T06:45:32.482Z,16832
2016-10-16T06:46:32.467Z,16864
2016-10-16T06:47:32.460Z,16672
2016-10-16T06:48:32.458Z,16736
2016-10-16T06:49:32.442Z,16992
2016-10-16T06:50:32.453Z,17984
2016-10-16T06:51:32.426Z,18688
2016-10-16T06:52:32.409Z,18592
2016-10-16T06:53:32.391Z,18880
2016-10-16T06:54:32.390Z,19232
2016-10-16T06:55:32.380Z,19360
2016-10-16T06:56:32.377Z,19840
2016-10-16T06:57:32.377Z,20352
2016-10-16T06:58:32.372Z,20352
2016-10-16T06:59:32.380Z,20736
2016-10-16T07:00:32.506Z,21056
2016-10-16T07:01:32.352Z,20928
2016-10-16T07:02:32.353Z,20704
2016-10-16T07:03:32.348Z,21120
2016-10-16T07:04:32.335Z,20800
2016-10-16T07:05:32.303Z,20640
2016-10-16T07:06:32.310Z,20864
2016-10-16T07:07:32.298Z,21824
2016-10-16T07:08:32.307Z,22112
2016-10-16T07:09:32.303Z,21504
2016-10-16T07:10:32.269Z,21728
2016-10-16T07:11:32.292Z,22432
2016-10-16T07:12:32.268Z,22528
2016-10-16T07:13:32.278Z,22400
2016-10-16T07:14:32.258Z,22656
2016-10-16T07:15:32.249Z,23520
2016-10-16T07:16:32.244Z,24256
2016-10-16T07:17:32.235Z,24448
2016-10-16T07:18:32.229Z,24576
2016-10-16T07:19:32.234Z,24352
2016-10-16T07:20:32.205Z,24064
2016-10-16T07:21:32.195Z,24288
2016-10-16T07:22:32.196Z,24576
2016-10-16T07:23:32.198Z,24576
2016-10-16T07:24:32.173Z,25152
2016-10-16T07:25:32.196Z,24992
2016-10-16T07:26:32.171Z,24896
2016-10-16T07:27:32.186Z,25056
2016-10-16T07:28:32.142Z,25728
2016-10-16T07:29:32.143Z,26240
2016-10-16T07:30:32.141Z,26464
2016-10-16T07:31:32.123Z,26624
2016-10-16T07:32:32.086Z,26464
2016-10-16T07:33:32.114Z,26624
2016-10-16T07:34:32.087Z,26880
2016-10-16T07:35:32.090Z,27392
2016-10-16T07:36:32.077Z,27552
2016-10-16T07:37:32.075Z,27424
2016-10-16T07:38:32.056Z,26528
2016-10-16T07:39:32.034Z,24800
2016-10-16T07:40:32.044Z,24416
2016-10-16T07:41:32.018Z,24640
2016-10-16T07:42:31.998Z,24928
2016-10-16T07:43:32.029Z,25664
2016-10-16T07:44:32.010Z,26976
2016-10-16T07:45:32.004Z,27424
2016-10-16T07:46:31.989Z,27648
2016-10-16T07:47:31.959Z,27488
2016-10-16T07:48:31.961Z,26464
2016-10-16T07:49:31.981Z,26304
2016-10-16T07:50:31.942Z,26944
2016-10-16T07:51:31.931Z,27360
2016-10-16T07:52:31.927Z,27648
2016-10-16T07:53:31.936Z,27584
2016-10-16T07:54:31.905Z,27264
2016-10-16T07:55:31.903Z,27264
2016-10-16T07:56:31.882Z,27872
2016-10-16T07:57:31.990Z,29376
2016-10-16T07:58:31.890Z,30400
2016-10-16T07:59:31.860Z,29088
2016-10-16T08:00:31.846Z,29504
2016-10-16T08:01:31.849Z,29760
2016-10-16T08:02:31.842Z,30272
2016-10-16T08:03:31.829Z,30816
2016-10-16T08:04:31.812Z,28640
2016-10-16T08:05:31.819Z,27072
2016-10-16T08:06:31.817Z,27200
2016-10-16T08:07:31.785Z,27200
2016-10-16T08:08:31.787Z,28128
2016-10-16T08:09:31.781Z,29184
2016-10-16T08:10:31.758Z,29792
2016-10-16T08:11:31.739Z,30176
2016-10-16T08:12:31.749Z,30336
2016-10-16T08:13:31.738Z,31456
2016-10-16T08:14:31.713Z,31648
2016-10-16T08:15:31.708Z,32544
2016-10-16T08:16:31.692Z,33952
2016-10-16T08:17:31.699Z,34144
2016-10-16T08:18:31.702Z,34016
2016-10-16T08:19:31.683Z,35488
2016-10-16T08:20:31.962Z,36288
2016-10-16T08:21:31.679Z,35456
2016-10-16T08:22:31.971Z,33440
2016-10-16T08:23:32.159Z,31840
2016-10-16T08:24:31.637Z,33216
2016-10-16T08:25:31.640Z,36960
2016-10-16T08:26:31.583Z,36544
2016-10-16T08:27:31.617Z,37152
2016-10-16T08:28:31.621Z,38880
2016-10-16T08:29:31.577Z,36960
2016-10-16T08:30:31.564Z,37216
2016-10-16T08:31:31.572Z,37536
2016-10-16T08:32:31.556Z,36352
2016-10-16T08:33:31.542Z,38560
2016-10-16T08:34:31.568Z,42176
2016-10-16T08:35:31.532Z,42400
2016-10-16T08:36:31.536Z,40928
2016-10-16T08:37:31.491Z,38048
2016-10-16T08:38:31.472Z,36384
2016-10-16T08:39:31.498Z,39232
2016-10-16T08:40:31.464Z,39904
2016-10-16T08:41:31.471Z,40288
2016-10-16T08:42:31.478Z,43744
2016-10-16T08:43:31.453Z,43584
2016-10-16T08:44:31.422Z,49312
2016-10-16T08:45:31.435Z,54336
2016-10-16T08:46:31.413Z,52480
2016-10-16T08:47:31.414Z,56768
2016-10-16T08:48:31.415Z,65824
2016-10-16T08:49:31.366Z,66240
2016-10-16T08:50:31.396Z,60096
2016-10-16T08:51:31.388Z,57600
2016-10-16T08:52:31.365Z,61248
2016-10-16T08:53:31.360Z,57984
2016-10-16T08:54:31.348Z,58752
2016-10-16T08:55:31.337Z,58784
2016-10-16T08:56:31.337Z,56512
2016-10-16T08:57:31.319Z,60960
2016-10-16T08:58:31.288Z,65152
2016-10-16T08:59:31.294Z,68416
2016-10-16T09:00:31.317Z,68032
2016-10-16T09:01:31.295Z,61472
2016-10-16T09:02:31.273Z,55072
2016-10-16T09:03:31.278Z,49696
2016-10-16T09:04:31.246Z,46432
2016-10-16T09:05:31.219Z,45440
2016-10-16T09:06:31.227Z,41824
2016-10-16T09:07:31.218Z,45408
2016-10-16T09:08:31.244Z,46304
2016-10-16T09:09:31.209Z,42848
2016-10-16T09:10:31.323Z,45248
2016-10-16T09:11:31.213Z,50208
2016-10-16T09:12:31.170Z,51168
2016-10-16T09:13:31.165Z,52128
2016-10-16T09:14:31.152Z,54048
2016-10-16T09:15:31.148Z,53856
2016-10-16T09:16:31.149Z,54112
2016-10-16T09:17:31.151Z,50144
2016-10-16T09:18:31.138Z,52256
2016-10-16T09:19:31.113Z,62048
2016-10-16T09:20:31.108Z,70688
2016-10-16T09:21:31.120Z,81248
2016-10-16T09:22:31.073Z,88544
2016-10-16T09:23:31.070Z,86560
2016-10-16T09:24:31.057Z,73024
2016-10-16T09:25:31.055Z,68032
2016-10-16T09:26:31.071Z,67904
2016-10-16T09:27:31.057Z,67616
2016-10-16T09:28:31.007Z,68416
2016-10-16T09:29:31.036Z,67008
2016-10-16T09:30:31.010Z,64896
2016-10-16T09:31:30.999Z,64896
2016-10-16T09:32:30.980Z,65408
2016-10-16T09:33:30.973Z,66592
2016-10-16T09:34:30.991Z,68512
2016-10-16T09:35:30.957Z,69312
2016-10-16T09:36:31.257Z,69088
2016-10-16T09:37:30.962Z,71040
2016-10-16T09:38:30.927Z,72256
2016-10-16T09:39:30.933Z,71040
2016-10-16T09:40:30.912Z,69120
2016-10-16T09:41:30.920Z,67936
2016-10-16T09:42:30.897Z,67520
2016-10-16T09:43:30.905Z,66944
2016-10-16T09:44:31.239Z,68896
2016-10-16T09:45:30.865Z,65120
2016-10-16T09:46:30.848Z,59072
2016-10-16T09:47:30.877Z,64960
2016-10-16T09:48:30.853Z,69504
2016-10-16T09:49:30.857Z,68256
2016-10-16T09:50:30.857Z,65504
2016-10-16T09:51:30.844Z,64192
2016-10-16T09:52:30.823Z,64768
2016-10-16T09:53:30.805Z,63168
2016-10-16T09:54:30.804Z,62176
2016-10-16T09:55:30.793Z,62944
2016-10-16T09:56:30.772Z,63968
2016-10-16T09:57:30.769Z,65344
2016-10-16T09:58:30.758Z,64672
2016-10-16T09:59:30.747Z,62592
2016-10-16T10:00:30.750Z,62880
2016-10-16T10:01:30.758Z,62432
2016-10-16T10:02:30.710Z,60288
2016-10-16T10:03:30.727Z,58528
2016-10-16T10:04:30.715Z,57312
2016-10-16T10:05:30.717Z,55072
2016-10-16T10:06:30.697Z,54240
2016-10-16T10:07:30.715Z,53696
2016-10-16T10:08:30.662Z,52928
2016-10-16T10:09:30.675Z,52480
2016-10-16T10:10:30.656Z,52832
2016-10-16T10:11:30.642Z,54336
2016-10-16T10:12:30.615Z,55328
2016-10-16T10:13:30.675Z,54976
2016-10-16T10:14:30.629Z,55584
2016-10-16T10:15:30.925Z,55616
2016-10-16T10:16:30.595Z,55008
2016-10-16T10:17:30.893Z,54496
2016-10-16T10:18:30.611Z,53568
2016-10-16T10:19:30.583Z,52896
2016-10-16T10:20:30.584Z,53120
2016-10-16T10:21:30.540Z,52000
2016-10-16T10:22:30.568Z,51456
2016-10-16T10:23:30.554Z,51264
2016-10-16T10:24:30.847Z,49888
2016-10-16T10:25:30.515Z,49760
2016-10-16T10:26:30.505Z,49984
2016-10-16T10:27:30.508Z,50048
2016-10-16T10:28:30.464Z,50976
2016-10-16T10:29:30.478Z,52288
2016-10-16T10:30:30.479Z,52672
2016-10-16T10:31:30.469Z,53792
2016-10-16T10:32:30.462Z,56352
2016-10-16T10:33:30.434Z,55968
2016-10-16T10:34:30.440Z,54016
2016-10-16T10:35:30.453Z,52960
2016-10-16T10:36:30.409Z,52192
2016-10-16T10:37:30.409Z,51776
2016-10-16T10:38:30.403Z,51904
2016-10-16T10:39:30.384Z,52160
2016-10-16T10:40:30.382Z,53440
2016-10-16T10:41:30.401Z,54688
2016-10-16T10:42:30.364Z,56768
2016-10-16T10:43:30.357Z,58560
2016-10-16T10:44:30.340Z,60512
2016-10-16T10:45:30.333Z,64032
2016-10-16T10:46:30.324Z,67904
2016-10-16T10:47:30.314Z,71136
2016-10-16T10:48:30.315Z,72512
2016-10-16T10:49:30.315Z,72800
2016-10-16T10:50:30.318Z,75488
2016-10-16T10:51:30.285Z,77856
2016-10-16T10:52:30.311Z,78208
2016-10-16T10:53:30.292Z,77216
2016-10-16T10:54:30.286Z,77088
2016-10-16T10:55:30.284Z,77728
2016-10-16T10:56:30.570Z,78656
2016-10-16T10:57:30.240Z,78464
2016-10-16T10:58:30.234Z,77984
2016-10-16T10:59:30.229Z,77920
2016-10-16T11:00:30.206Z,78016
2016-10-16T11:01:30.193Z,78304
2016-10-16T11:02:30.219Z,78240
2016-10-16T11:03:30.209Z,79392
2016-10-16T11:04:30.189Z,81344
2016-10-16T11:05:30.198Z,82816
2016-10-16T11:06:30.166Z,84160
2016-10-16T11:07:30.170Z,83872
2016-10-16T11:08:30.173Z,82912
2016-10-16T11:09:30.145Z,78368
2016-10-16T11:10:30.135Z,77568
2016-10-16T11:11:30.120Z,79424
2016-10-16T11:12:30.118Z,77344
2016-10-16T11:13:30.132Z,77184
2016-10-16T11:14:30.104Z,80640
2016-10-16T11:15:30.103Z,83072
2016-10-16T11:16:30.094Z,84160
2016-10-16T11:17:30.108Z,85312
2016-10-16T11:18:30.056Z,84608
2016-10-16T11:19:30.074Z,82176
2016-10-16T11:20:30.085Z,76672
2016-10-16T11:21:30.059Z,72064
2016-10-16T11:22:30.041Z,67552
2016-10-16T11:23:30.044Z,67104
2016-10-16T11:24:30.020Z,67520
2016-10-16T11:25:30.043Z,66752
2016-10-16T11:26:30.011Z,65632
2016-10-16T11:27:30.010Z,61280
2016-10-16T11:28:30.006Z,60256
2016-10-16T11:29:29.971Z,64832
2016-10-16T11:30:29.964Z,66688
2016-10-16T11:31:29.967Z,67232
2016-10-16T11:32:29.956Z,64800
2016-10-16T11:33:29.956Z,62240
2016-10-16T11:34:29.941Z,60800
2016-10-16T11:35:29.946Z,58208
2016-10-16T11:36:29.910Z,56832
2016-10-16T11:37:29.920Z,61632
2016-10-16T11:38:29.941Z,62112
2016-10-16T11:39:29.903Z,59040
2016-10-16T11:40:29.924Z,58528
2016-10-16T11:41:29.903Z,58176
2016-10-16T11:42:29.867Z,56608
2016-10-16T11:43:29.902Z,55264
2016-10-16T11:44:29.891Z,57184
2016-10-16T11:45:29.885Z,57696
2016-10-16T11:46:29.856Z,56832
2016-10-16T11:47:29.868Z,57536
2016-10-16T11:48:29.834Z,59840
2016-10-16T11:49:29.829Z,60832
2016-10-16T11:50:29.850Z,59552
2016-10-16T11:51:29.839Z,58048
2016-10-16T11:52:29.813Z,58144
2016-10-16T11:53:29.822Z,59232
2016-10-16T11:54:29.822Z,59328
2016-10-16T11:55:29.810Z,59552
2016-10-16T11:56:29.792Z,59808
2016-10-16T11:57:29.783Z,59520
2016-10-16T11:58:29.783Z,58112
2016-10-16T11:59:29.782Z,54592
2016-10-16T12:00:29.765Z,54592
2016-10-16T12:01:29.827Z,58400
2016-10-16T12:02:29.745Z,58880
2016-10-16T12:03:29.743Z,60320
2016-10-16T12:04:29.736Z,62656
2016-10-16T12:05:29.758Z,63936
2016-10-16T12:06:29.741Z,71680
2016-10-16T12:07:29.725Z,81504
2016-10-16T12:08:29.699Z,78240
2016-10-16T12:09:29.716Z,70944
2016-10-16T12:10:29.710Z,65152
2016-10-16T12:11:29.704Z,62368
2016-10-16T12:12:29.726Z,60000
2016-10-16T12:13:29.694Z,57248
2016-10-16T12:14:29.701Z,55616
2016-10-16T12:15:29.690Z,53920
2016-10-16T12:16:29.706Z,54880
2016-10-16T12:17:29.654Z,54720
2016-10-16T12:18:29.663Z,49824
2016-10-16T12:19:29.649Z,47264
2016-10-16T12:20:29.652Z,48032
2016-10-16T12:21:29.648Z,46432
2016-10-16T12:22:29.678Z,44672
2016-10-16T12:23:29.647Z,45920
2016-10-16T12:24:29.663Z,49440
2016-10-16T12:25:29.655Z,52160
2016-10-16T12:26:29.613Z,51328
2016-10-16T12:27:29.637Z,48096
2016-10-16T12:28:29.636Z,49728
2016-10-16T12:29:29.590Z,55232
2016-10-16T12:30:29.600Z,62336
2016-10-16T12:31:29.616Z,66944
2016-10-16T12:32:29.594Z,66816
2016-10-16T12:33:29.603Z,62048
2016-10-16T12:34:29.595Z,56000
2016-10-16T12:35:29.567Z,52352
2016-10-16T12:36:29.576Z,53152
2016-10-16T12:37:29.580Z,54784
2016-10-16T12:38:29.566Z,54720
2016-10-16T12:39:29.566Z,53504
2016-10-16T12:40:29.566Z,50240
2016-10-16T12:41:29.551Z,48640
2016-10-16T12:42:29.559Z,50912
2016-10-16T12:43:29.543Z,53216
2016-10-16T12:44:29.567Z,53440
2016-10-16T12:45:29.531Z,52768
2016-10-16T12:46:29.834Z,50944
2016-10-16T12:47:29.519Z,49952
2016-10-16T12:48:29.516Z,50880
2016-10-16T12:49:29.514Z,51776
2016-10-16T12:50:29.478Z,49184
2016-10-16T12:51:29.511Z,45120
2016-10-16T12:52:29.503Z,40800
2016-10-16T12:53:29.480Z,38368
2016-10-16T12:54:29.498Z,39328
2016-10-16T12:55:29.458Z,40384
2016-10-16T12:56:29.464Z,41696
2016-10-16T12:57:29.476Z,42464
2016-10-16T12:58:29.466Z,44224
2016-10-16T12:59:29.454Z,47648
2016-10-16T13:00:29.445Z,52416
2016-10-16T13:01:29.435Z,56160
2016-10-16T13:02:29.438Z,57120
2016-10-16T13:03:29.429Z,55200
2016-10-16T13:04:29.605Z,54176
2016-10-16T13:05:29.398Z,52000
2016-10-16T13:06:29.393Z,49024
2016-10-16T13:07:29.408Z,47520
2016-10-16T13:08:29.687Z,45920
2016-10-16T13:09:29.394Z,43744
2016-10-16T13:10:29.359Z,38528
2016-10-16T13:11:29.366Z,36128
2016-10-16T13:12:29.343Z,36032
2016-10-16T13:13:29.365Z,36672
2016-10-16T13:14:29.355Z,39328
2016-10-16T13:15:29.337Z,44736
2016-10-16T13:16:29.630Z,55424
2016-10-16T13:17:29.320Z,61696
2016-10-16T13:18:29.344Z,61280
2016-10-16T13:19:29.322Z,60000
2016-10-16T13:20:29.335Z,59360
2016-10-16T13:21:29.290Z,58720
2016-10-16T13:22:29.322Z,57728
2016-10-16T13:23:29.294Z,56096
2016-10-16T13:24:29.273Z,52608
2016-10-16T13:25:29.303Z,50752
2016-10-16T13:26:29.259Z,50592
2016-10-16T13:27:29.277Z,50688
2016-10-16T13:28:29.284Z,49760
2016-10-16T13:29:29.266Z,44896
2016-10-16T13:30:29.246Z,42720
2016-10-16T13:31:29.245Z,51040
2016-10-16T13:32:29.222Z,58752
2016-10-16T13:33:29.228Z,41344
2016-10-16T13:34:29.210Z,23072
2016-10-16T13:35:29.216Z,19552
2016-10-16T13:36:29.210Z,19712